sensor_id;sensor_type;location;lat;lon;timestamp;P1;durP1;ratioP1;P2;durP2;ratioP2
31798;SDS011;18374;51.136;3.502;2023-06-19T00:02:19;6.20;;;3.45;;
31798;SDS011;18374;51.136;3.502;2023-06-19T00:04:47;6.97;;;3.70;;
31798;SDS011;18374;51.136;3.502;2023-06-19T00:07:15;5.25;;;3.55;;
31798;SDS011;18374;51.136;3.502;2023-06-19T00:09:43;5.60;;;4.43;;
31798;SDS011;18374;51.136;3.502;2023-06-19T00:12:11;11.45;;;5.43;;
31798;SDS011;18374;51.136;3.502;2023-06-19T00:14:38;7.32;;;4.55;;
31798;SDS011;18374;51.136;3.502;2023-06-19T00:17:06;7.40;;;4.45;;
31798;SDS011;18374;51.136;3.502;2023-06-19T00:19:34;7.05;;;4.63;;
31798;SDS011;18374;51.136;3.502;2023-06-19T00:22:04;5.75;;;4.28;;
31798;SDS011;18374;51.136;3.502;2023-06-19T00:24:32;6.88;;;4.95;;
31798;SDS011;18374;51.136;3.502;2023-06-19T00:27:00;9.60;;;5.53;;
31798;SDS011;18374;51.136;3.502;2023-06-19T00:29:29;12.10;;;4.90;;
31798;SDS011;18374;51.136;3.502;2023-06-19T00:31:58;6.22;;;4.78;;
31798;SDS011;18374;51.136;3.502;2023-06-19T00:34:28;7.80;;;4.75;;
31798;SDS011;18374;51.136;3.502;2023-06-19T00:36:57;5.22;;;4.38;;
31798;SDS011;18374;51.136;3.502;2023-06-19T00:39:25;6.20;;;4.93;;
31798;SDS011;18374;51.136;3.502;2023-06-19T00:41:54;7.30;;;4.90;;
31798;SDS011;18374;51.136;3.502;2023-06-19T00:44:23;8.23;;;5.85;;
31798;SDS011;18374;51.136;3.502;2023-06-19T00:46:51;16.58;;;6.72;;
31798;SDS011;18374;51.136;3.502;2023-06-19T00:49:28;9.98;;;6.78;;
31798;SDS011;18374;51.136;3.502;2023-06-19T00:51:56;13.63;;;8.27;;
31798;SDS011;18374;51.136;3.502;2023-06-19T00:54:25;14.57;;;9.55;;
31798;SDS011;18374;51.136;3.502;2023-06-19T00:56:53;14.95;;;10.30;;
31798;SDS011;18374;51.136;3.502;2023-06-19T00:59:21;16.23;;;9.73;;
31798;SDS011;18374;51.136;3.502;2023-06-19T01:01:49;13.90;;;9.45;;
31798;SDS011;18374;51.136;3.502;2023-06-19T01:04:19;16.58;;;10.13;;
31798;SDS011;18374;51.136;3.502;2023-06-19T01:09:26;14.73;;;9.05;;
31798;SDS011;18374;51.136;3.502;2023-06-19T01:12:02;18.23;;;9.95;;
31798;SDS011;18374;51.136;3.502;2023-06-19T01:14:42;16.58;;;9.68;;
31798;SDS011;18374;51.136;3.502;2023-06-19T01:17:22;17.05;;;9.40;;
31798;SDS011;18374;51.136;3.502;2023-06-19T01:19:50;15.48;;;9.70;;
31798;SDS011;18374;51.136;3.502;2023-06-19T01:22:22;15.80;;;9.10;;
31798;SDS011;18374;51.136;3.502;2023-06-19T01:24:59;11.57;;;7.68;;
31798;SDS011;18374;51.136;3.502;2023-06-19T01:27:27;10.93;;;7.30;;
31798;SDS011;18374;51.136;3.502;2023-06-19T01:29:59;12.60;;;7.35;;
31798;SDS011;18374;51.136;3.502;2023-06-19T01:32:41;14.25;;;7.00;;
31798;SDS011;18374;51.136;3.502;2023-06-19T01:35:22;11.95;;;7.20;;
31798;SDS011;18374;51.136;3.502;2023-06-19T01:37:54;12.13;;;6.95;;
31798;SDS011;18374;51.136;3.502;2023-06-19T01:40:23;13.43;;;7.55;;
31798;SDS011;18374;51.136;3.502;2023-06-19T01:42:53;12.38;;;6.75;;
31798;SDS011;18374;51.136;3.502;2023-06-19T01:45:22;12.85;;;6.65;;
31798;SDS011;18374;51.136;3.502;2023-06-19T01:47:50;9.23;;;5.30;;
31798;SDS011;18374;51.136;3.502;2023-06-19T01:50:21;8.77;;;5.10;;
31798;SDS011;18374;51.136;3.502;2023-06-19T01:52:50;7.28;;;4.63;;
31798;SDS011;18374;51.136;3.502;2023-06-19T01:55:19;5.85;;;3.72;;
31798;SDS011;18374;51.136;3.502;2023-06-19T01:57:47;5.22;;;3.53;;
31798;SDS011;18374;51.136;3.502;2023-06-19T02:00:15;3.97;;;2.90;;
31798;SDS011;18374;51.136;3.502;2023-06-19T02:02:44;5.78;;;3.33;;
31798;SDS011;18374;51.136;3.502;2023-06-19T02:05:12;5.50;;;3.15;;
31798;SDS011;18374;51.136;3.502;2023-06-19T02:07:41;4.60;;;3.30;;
31798;SDS011;18374;51.136;3.502;2023-06-19T02:10:09;5.35;;;3.25;;
31798;SDS011;18374;51.136;3.502;2023-06-19T02:12:37;3.97;;;3.25;;
31798;SDS011;18374;51.136;3.502;2023-06-19T02:15:04;8.50;;;3.72;;
31798;SDS011;18374;51.136;3.502;2023-06-19T02:17:33;5.32;;;3.92;;
31798;SDS011;18374;51.136;3.502;2023-06-19T02:20:02;8.07;;;4.47;;
31798;SDS011;18374;51.136;3.502;2023-06-19T02:22:36;12.00;;;4.85;;
31798;SDS011;18374;51.136;3.502;2023-06-19T02:25:07;7.88;;;5.22;;
31798;SDS011;18374;51.136;3.502;2023-06-19T02:27:35;8.93;;;5.75;;
31798;SDS011;18374;51.136;3.502;2023-06-19T02:30:03;10.38;;;5.90;;
31798;SDS011;18374;51.136;3.502;2023-06-19T02:32:32;15.32;;;6.47;;
31798;SDS011;18374;51.136;3.502;2023-06-19T02:35:02;10.50;;;6.72;;
31798;SDS011;18374;51.136;3.502;2023-06-19T02:37:35;12.10;;;6.65;;
31798;SDS011;18374;51.136;3.502;2023-06-19T02:40:04;9.23;;;6.28;;
31798;SDS011;18374;51.136;3.502;2023-06-19T02:42:33;15.23;;;6.90;;
31798;SDS011;18374;51.136;3.502;2023-06-19T02:45:01;9.30;;;6.97;;
31798;SDS011;18374;51.136;3.502;2023-06-19T02:47:32;9.80;;;7.18;;
31798;SDS011;18374;51.136;3.502;2023-06-19T02:50:00;13.05;;;8.48;;
31798;SDS011;18374;51.136;3.502;2023-06-19T02:52:31;12.25;;;8.02;;
31798;SDS011;18374;51.136;3.502;2023-06-19T02:54:59;11.85;;;8.45;;
31798;SDS011;18374;51.136;3.502;2023-06-19T02:57:27;10.57;;;8.10;;
31798;SDS011;18374;51.136;3.502;2023-06-19T02:59:54;13.13;;;8.25;;
31798;SDS011;18374;51.136;3.502;2023-06-19T03:02:22;11.20;;;8.55;;
31798;SDS011;18374;51.136;3.502;2023-06-19T03:04:50;11.25;;;8.55;;
31798;SDS011;18374;51.136;3.502;2023-06-19T03:07:19;13.38;;;9.35;;
31798;SDS011;18374;51.136;3.502;2023-06-19T03:09:47;14.90;;;9.65;;
31798;SDS011;18374;51.136;3.502;2023-06-19T03:12:14;14.50;;;9.35;;
31798;SDS011;18374;51.136;3.502;2023-06-19T03:14:43;16.08;;;10.15;;
31798;SDS011;18374;51.136;3.502;2023-06-19T03:17:12;14.88;;;9.98;;
31798;SDS011;18374;51.136;3.502;2023-06-19T03:19:40;17.27;;;9.90;;
31798;SDS011;18374;51.136;3.502;2023-06-19T03:22:07;18.75;;;10.10;;
31798;SDS011;18374;51.136;3.502;2023-06-19T03:24:37;16.52;;;12.07;;
31798;SDS011;18374;51.136;3.502;2023-06-19T03:27:17;15.50;;;11.52;;
31798;SDS011;18374;51.136;3.502;2023-06-19T03:29:45;16.45;;;11.55;;
31798;SDS011;18374;51.136;3.502;2023-06-19T03:32:18;19.73;;;13.98;;
31798;SDS011;18374;51.136;3.502;2023-06-19T03:34:47;24.30;;;15.23;;
31798;SDS011;18374;51.136;3.502;2023-06-19T03:37:15;25.83;;;14.98;;
31798;SDS011;18374;51.136;3.502;2023-06-19T03:39:44;25.77;;;15.75;;
31798;SDS011;18374;51.136;3.502;2023-06-19T03:42:14;22.63;;;15.90;;
31798;SDS011;18374;51.136;3.502;2023-06-19T03:44:41;23.58;;;16.63;;
31798;SDS011;18374;51.136;3.502;2023-06-19T03:47:09;30.23;;;17.52;;
31798;SDS011;18374;51.136;3.502;2023-06-19T03:49:37;27.85;;;16.60;;
31798;SDS011;18374;51.136;3.502;2023-06-19T03:52:05;29.88;;;18.17;;
31798;SDS011;18374;51.136;3.502;2023-06-19T03:54:34;30.33;;;19.00;;
31798;SDS011;18374;51.136;3.502;2023-06-19T03:57:02;29.27;;;18.83;;
31798;SDS011;18374;51.136;3.502;2023-06-19T03:59:30;33.50;;;19.27;;
31798;SDS011;18374;51.136;3.502;2023-06-19T04:01:58;34.05;;;20.27;;
31798;SDS011;18374;51.136;3.502;2023-06-19T04:04:26;31.45;;;20.30;;
31798;SDS011;18374;51.136;3.502;2023-06-19T04:06:55;32.17;;;19.25;;
31798;SDS011;18374;51.136;3.502;2023-06-19T04:09:22;35.40;;;19.67;;
31798;SDS011;18374;51.136;3.502;2023-06-19T04:11:50;33.38;;;19.63;;
31798;SDS011;18374;51.136;3.502;2023-06-19T04:14:18;34.40;;;21.33;;
31798;SDS011;18374;51.136;3.502;2023-06-19T04:16:46;30.88;;;18.98;;
31798;SDS011;18374;51.136;3.502;2023-06-19T04:19:13;35.10;;;19.55;;
31798;SDS011;18374;51.136;3.502;2023-06-19T04:21:41;29.95;;;18.90;;
31798;SDS011;18374;51.136;3.502;2023-06-19T04:24:09;31.38;;;18.63;;
31798;SDS011;18374;51.136;3.502;2023-06-19T04:26:37;30.63;;;18.23;;
31798;SDS011;18374;51.136;3.502;2023-06-19T04:29:05;31.50;;;19.15;;
31798;SDS011;18374;51.136;3.502;2023-06-19T04:31:34;28.63;;;17.88;;
31798;SDS011;18374;51.136;3.502;2023-06-19T04:34:09;29.48;;;17.52;;
31798;SDS011;18374;51.136;3.502;2023-06-19T04:36:36;31.55;;;18.05;;
31798;SDS011;18374;51.136;3.502;2023-06-19T04:39:04;34.33;;;19.02;;
31798;SDS011;18374;51.136;3.502;2023-06-19T04:41:33;29.20;;;18.25;;
31798;SDS011;18374;51.136;3.502;2023-06-19T04:44:01;29.42;;;18.05;;
31798;SDS011;18374;51.136;3.502;2023-06-19T04:46:30;28.90;;;17.88;;
31798;SDS011;18374;51.136;3.502;2023-06-19T04:48:58;29.42;;;16.45;;
31798;SDS011;18374;51.136;3.502;2023-06-19T04:51:26;26.27;;;16.55;;
31798;SDS011;18374;51.136;3.502;2023-06-19T04:53:54;31.20;;;17.98;;
31798;SDS011;18374;51.136;3.502;2023-06-19T04:56:21;29.52;;;17.70;;
31798;SDS011;18374;51.136;3.502;2023-06-19T04:58:49;28.85;;;17.65;;
31798;SDS011;18374;51.136;3.502;2023-06-19T05:01:18;27.08;;;16.55;;
31798;SDS011;18374;51.136;3.502;2023-06-19T05:03:49;30.73;;;17.35;;
31798;SDS011;18374;51.136;3.502;2023-06-19T05:06:17;27.08;;;17.67;;
31798;SDS011;18374;51.136;3.502;2023-06-19T05:08:45;29.80;;;18.15;;
31798;SDS011;18374;51.136;3.502;2023-06-19T05:11:13;29.58;;;17.83;;
31798;SDS011;18374;51.136;3.502;2023-06-19T05:13:41;27.35;;;17.52;;
31798;SDS011;18374;51.136;3.502;2023-06-19T05:16:09;27.27;;;17.58;;
31798;SDS011;18374;51.136;3.502;2023-06-19T05:18:37;28.67;;;17.05;;
31798;SDS011;18374;51.136;3.502;2023-06-19T05:21:05;26.88;;;17.60;;
31798;SDS011;18374;51.136;3.502;2023-06-19T05:23:33;30.55;;;17.13;;
31798;SDS011;18374;51.136;3.502;2023-06-19T05:26:02;27.63;;;16.90;;
31798;SDS011;18374;51.136;3.502;2023-06-19T05:28:30;30.63;;;18.02;;
31798;SDS011;18374;51.136;3.502;2023-06-19T05:30:57;27.83;;;17.08;;
31798;SDS011;18374;51.136;3.502;2023-06-19T05:33:25;30.40;;;17.77;;
31798;SDS011;18374;51.136;3.502;2023-06-19T05:35:53;28.70;;;17.73;;
31798;SDS011;18374;51.136;3.502;2023-06-19T05:38:21;30.30;;;17.55;;
31798;SDS011;18374;51.136;3.502;2023-06-19T05:40:50;32.97;;;19.00;;
31798;SDS011;18374;51.136;3.502;2023-06-19T05:43:18;28.83;;;18.52;;
31798;SDS011;18374;51.136;3.502;2023-06-19T05:45:47;31.13;;;18.45;;
31798;SDS011;18374;51.136;3.502;2023-06-19T05:48:15;27.50;;;16.83;;
31798;SDS011;18374;51.136;3.502;2023-06-19T05:50:42;30.95;;;17.52;;
31798;SDS011;18374;51.136;3.502;2023-06-19T05:53:10;32.95;;;18.13;;
31798;SDS011;18374;51.136;3.502;2023-06-19T05:55:41;29.08;;;16.77;;
31798;SDS011;18374;51.136;3.502;2023-06-19T05:58:09;27.52;;;16.50;;
31798;SDS011;18374;51.136;3.502;2023-06-19T06:00:37;31.23;;;17.98;;
31798;SDS011;18374;51.136;3.502;2023-06-19T06:03:05;29.50;;;17.13;;
31798;SDS011;18374;51.136;3.502;2023-06-19T06:05:33;29.80;;;16.98;;
31798;SDS011;18374;51.136;3.502;2023-06-19T06:08:02;24.52;;;16.15;;
31798;SDS011;18374;51.136;3.502;2023-06-19T06:10:30;28.52;;;16.05;;
31798;SDS011;18374;51.136;3.502;2023-06-19T06:12:57;27.42;;;16.75;;
31798;SDS011;18374;51.136;3.502;2023-06-19T06:15:25;25.08;;;16.20;;
31798;SDS011;18374;51.136;3.502;2023-06-19T06:17:53;25.52;;;15.93;;
31798;SDS011;18374;51.136;3.502;2023-06-19T06:20:21;26.63;;;17.08;;
31798;SDS011;18374;51.136;3.502;2023-06-19T06:22:49;28.95;;;17.80;;
31798;SDS011;18374;51.136;3.502;2023-06-19T06:25:17;28.88;;;16.88;;
31798;SDS011;18374;51.136;3.502;2023-06-19T06:27:44;23.08;;;15.70;;
31798;SDS011;18374;51.136;3.502;2023-06-19T06:30:12;27.48;;;17.33;;
31798;SDS011;18374;51.136;3.502;2023-06-19T06:32:40;26.35;;;16.40;;
31798;SDS011;18374;51.136;3.502;2023-06-19T06:35:08;26.08;;;16.30;;
31798;SDS011;18374;51.136;3.502;2023-06-19T06:37:36;26.63;;;16.15;;
31798;SDS011;18374;51.136;3.502;2023-06-19T06:40:04;23.70;;;15.07;;
31798;SDS011;18374;51.136;3.502;2023-06-19T06:42:36;28.65;;;15.13;;
31798;SDS011;18374;51.136;3.502;2023-06-19T06:45:05;25.17;;;15.23;;
31798;SDS011;18374;51.136;3.502;2023-06-19T06:47:34;23.70;;;14.00;;
31798;SDS011;18374;51.136;3.502;2023-06-19T06:50:02;23.73;;;15.15;;
31798;SDS011;18374;51.136;3.502;2023-06-19T06:52:30;23.38;;;14.25;;
31798;SDS011;18374;51.136;3.502;2023-06-19T06:54:58;26.80;;;15.68;;
31798;SDS011;18374;51.136;3.502;2023-06-19T06:57:26;27.35;;;15.30;;
31798;SDS011;18374;51.136;3.502;2023-06-19T06:59:54;24.02;;;15.55;;
31798;SDS011;18374;51.136;3.502;2023-06-19T07:02:22;22.52;;;15.02;;
31798;SDS011;18374;51.136;3.502;2023-06-19T07:04:49;26.05;;;14.93;;
31798;SDS011;18374;51.136;3.502;2023-06-19T07:07:18;22.88;;;13.75;;
31798;SDS011;18374;51.136;3.502;2023-06-19T07:09:46;22.02;;;14.30;;
31798;SDS011;18374;51.136;3.502;2023-06-19T07:12:14;22.67;;;13.75;;
31798;SDS011;18374;51.136;3.502;2023-06-19T07:14:42;21.42;;;12.85;;
31798;SDS011;18374;51.136;3.502;2023-06-19T07:17:09;21.15;;;13.52;;
31798;SDS011;18374;51.136;3.502;2023-06-19T07:19:37;23.65;;;13.38;;
31798;SDS011;18374;51.136;3.502;2023-06-19T07:22:05;21.35;;;13.23;;
31798;SDS011;18374;51.136;3.502;2023-06-19T07:24:33;17.92;;;12.73;;
31798;SDS011;18374;51.136;3.502;2023-06-19T07:27:00;21.00;;;13.57;;
31798;SDS011;18374;51.136;3.502;2023-06-19T07:29:28;20.88;;;13.85;;
31798;SDS011;18374;51.136;3.502;2023-06-19T07:31:56;22.10;;;14.23;;
31798;SDS011;18374;51.136;3.502;2023-06-19T07:34:24;19.23;;;13.43;;
31798;SDS011;18374;51.136;3.502;2023-06-19T07:36:52;24.75;;;14.50;;
31798;SDS011;18374;51.136;3.502;2023-06-19T07:39:19;19.10;;;13.40;;
31798;SDS011;18374;51.136;3.502;2023-06-19T07:41:47;23.23;;;13.52;;
31798;SDS011;18374;51.136;3.502;2023-06-19T07:44:15;22.30;;;14.18;;
31798;SDS011;18374;51.136;3.502;2023-06-19T07:46:44;17.95;;;12.32;;
31798;SDS011;18374;51.136;3.502;2023-06-19T07:49:12;20.58;;;12.20;;
31798;SDS011;18374;51.136;3.502;2023-06-19T07:51:40;20.40;;;12.32;;
31798;SDS011;18374;51.136;3.502;2023-06-19T07:54:07;22.30;;;13.05;;
31798;SDS011;18374;51.136;3.502;2023-06-19T07:56:35;25.00;;;13.15;;
31798;SDS011;18374;51.136;3.502;2023-06-19T07:59:03;22.52;;;13.20;;
31798;SDS011;18374;51.136;3.502;2023-06-19T08:01:32;22.58;;;13.00;;
31798;SDS011;18374;51.136;3.502;2023-06-19T08:03:59;22.30;;;12.90;;
31798;SDS011;18374;51.136;3.502;2023-06-19T08:06:27;21.33;;;12.65;;
31798;SDS011;18374;51.136;3.502;2023-06-19T08:08:55;20.25;;;11.80;;
31798;SDS011;18374;51.136;3.502;2023-06-19T08:11:23;19.15;;;12.80;;
31798;SDS011;18374;51.136;3.502;2023-06-19T08:13:51;22.42;;;13.07;;
31798;SDS011;18374;51.136;3.502;2023-06-19T08:16:19;24.58;;;14.43;;
31798;SDS011;18374;51.136;3.502;2023-06-19T08:18:47;22.25;;;14.10;;
31798;SDS011;18374;51.136;3.502;2023-06-19T08:21:14;21.10;;;13.27;;
31798;SDS011;18374;51.136;3.502;2023-06-19T08:23:42;20.27;;;11.95;;
31798;SDS011;18374;51.136;3.502;2023-06-19T08:26:11;20.27;;;11.80;;
31798;SDS011;18374;51.136;3.502;2023-06-19T08:28:39;17.17;;;11.52;;
31798;SDS011;18374;51.136;3.502;2023-06-19T08:31:08;17.52;;;12.23;;
31798;SDS011;18374;51.136;3.502;2023-06-19T08:33:36;24.42;;;13.32;;
31798;SDS011;18374;51.136;3.502;2023-06-19T08:36:04;21.20;;;13.88;;
31798;SDS011;18374;51.136;3.502;2023-06-19T08:38:32;22.45;;;15.55;;
31798;SDS011;18374;51.136;3.502;2023-06-19T08:40:59;20.30;;;14.02;;
31798;SDS011;18374;51.136;3.502;2023-06-19T08:43:27;26.63;;;15.75;;
31798;SDS011;18374;51.136;3.502;2023-06-19T08:46:11;23.27;;;14.77;;
31798;SDS011;18374;51.136;3.502;2023-06-19T08:48:41;23.30;;;15.20;;
31798;SDS011;18374;51.136;3.502;2023-06-19T08:51:10;23.20;;;14.30;;
31798;SDS011;18374;51.136;3.502;2023-06-19T08:53:46;24.55;;;15.20;;
31798;SDS011;18374;51.136;3.502;2023-06-19T08:56:18;21.88;;;13.98;;
31798;SDS011;18374;51.136;3.502;2023-06-19T08:58:46;24.00;;;13.90;;
31798;SDS011;18374;51.136;3.502;2023-06-19T09:01:18;21.67;;;14.05;;
31798;SDS011;18374;51.136;3.502;2023-06-19T09:03:50;20.60;;;13.80;;
31798;SDS011;18374;51.136;3.502;2023-06-19T09:06:19;20.55;;;13.50;;
31798;SDS011;18374;51.136;3.502;2023-06-19T09:08:57;18.13;;;12.30;;
31798;SDS011;18374;51.136;3.502;2023-06-19T09:11:26;19.83;;;13.43;;
31798;SDS011;18374;51.136;3.502;2023-06-19T09:13:57;20.27;;;12.70;;
31798;SDS011;18374;51.136;3.502;2023-06-19T09:16:35;24.77;;;12.52;;
31798;SDS011;18374;51.136;3.502;2023-06-19T09:19:08;18.92;;;12.45;;
31798;SDS011;18374;51.136;3.502;2023-06-19T09:21:36;21.38;;;13.95;;
31798;SDS011;18374;51.136;3.502;2023-06-19T09:24:05;17.52;;;12.30;;
31798;SDS011;18374;51.136;3.502;2023-06-19T09:26:35;20.58;;;12.93;;
31798;SDS011;18374;51.136;3.502;2023-06-19T09:29:12;17.38;;;12.35;;
31798;SDS011;18374;51.136;3.502;2023-06-19T09:31:47;22.02;;;14.07;;
31798;SDS011;18374;51.136;3.502;2023-06-19T09:34:14;20.42;;;13.55;;
31798;SDS011;18374;51.136;3.502;2023-06-19T09:36:42;22.65;;;13.77;;
31798;SDS011;18374;51.136;3.502;2023-06-19T09:39:13;17.77;;;12.80;;
31798;SDS011;18374;51.136;3.502;2023-06-19T09:41:43;20.40;;;12.13;;
31798;SDS011;18374;51.136;3.502;2023-06-19T09:44:14;20.20;;;12.55;;
31798;SDS011;18374;51.136;3.502;2023-06-19T09:46:44;20.42;;;11.63;;
31798;SDS011;18374;51.136;3.502;2023-06-19T09:49:13;20.30;;;12.70;;
31798;SDS011;18374;51.136;3.502;2023-06-19T09:51:44;18.77;;;12.25;;
31798;SDS011;18374;51.136;3.502;2023-06-19T09:54:12;21.30;;;12.57;;
31798;SDS011;18374;51.136;3.502;2023-06-19T09:56:43;19.85;;;12.40;;
31798;SDS011;18374;51.136;3.502;2023-06-19T09:59:11;20.30;;;11.70;;
31798;SDS011;18374;51.136;3.502;2023-06-19T10:01:40;20.33;;;12.43;;
31798;SDS011;18374;51.136;3.502;2023-06-19T10:04:09;13.23;;;10.45;;
31798;SDS011;18374;51.136;3.502;2023-06-19T10:06:45;23.88;;;12.95;;
31798;SDS011;18374;51.136;3.502;2023-06-19T10:09:14;17.92;;;11.82;;
31798;SDS011;18374;51.136;3.502;2023-06-19T10:11:46;16.38;;;12.38;;
31798;SDS011;18374;51.136;3.502;2023-06-19T10:14:19;16.33;;;11.77;;
31798;SDS011;18374;51.136;3.502;2023-06-19T10:16:48;18.70;;;11.68;;
31798;SDS011;18374;51.136;3.502;2023-06-19T10:19:17;19.73;;;12.55;;
31798;SDS011;18374;51.136;3.502;2023-06-19T10:21:48;17.58;;;13.15;;
31798;SDS011;18374;51.136;3.502;2023-06-19T10:24:19;18.95;;;12.15;;
31798;SDS011;18374;51.136;3.502;2023-06-19T10:27:01;19.52;;;13.02;;
31798;SDS011;18374;51.136;3.502;2023-06-19T10:29:39;20.20;;;13.73;;
31798;SDS011;18374;51.136;3.502;2023-06-19T10:32:11;21.48;;;13.98;;
31798;SDS011;18374;51.136;3.502;2023-06-19T10:34:39;23.15;;;13.55;;
31798;SDS011;18374;51.136;3.502;2023-06-19T10:37:06;18.20;;;13.13;;
31798;SDS011;18374;51.136;3.502;2023-06-19T10:39:34;22.08;;;14.95;;
31798;SDS011;18374;51.136;3.502;2023-06-19T10:42:05;23.60;;;14.50;;
31798;SDS011;18374;51.136;3.502;2023-06-19T10:44:34;20.00;;;15.45;;
31798;SDS011;18374;51.136;3.502;2023-06-19T10:47:05;20.88;;;14.23;;
31798;SDS011;18374;51.136;3.502;2023-06-19T10:49:34;22.00;;;13.98;;
31798;SDS011;18374;51.136;3.502;2023-06-19T10:52:02;18.23;;;12.65;;
31798;SDS011;18374;51.136;3.502;2023-06-19T10:54:31;19.55;;;13.10;;
31798;SDS011;18374;51.136;3.502;2023-06-19T10:57:03;15.65;;;11.95;;
31798;SDS011;18374;51.136;3.502;2023-06-19T10:59:33;18.45;;;11.60;;
31798;SDS011;18374;51.136;3.502;2023-06-19T11:02:01;21.00;;;12.27;;
31798;SDS011;18374;51.136;3.502;2023-06-19T11:04:29;16.00;;;10.40;;
31798;SDS011;18374;51.136;3.502;2023-06-19T11:06:57;17.55;;;12.70;;
31798;SDS011;18374;51.136;3.502;2023-06-19T11:09:32;16.95;;;11.82;;
31798;SDS011;18374;51.136;3.502;2023-06-19T11:11:59;17.55;;;13.20;;
31798;SDS011;18374;51.136;3.502;2023-06-19T11:14:28;17.75;;;11.25;;
31798;SDS011;18374;51.136;3.502;2023-06-19T11:16:57;17.58;;;11.85;;
31798;SDS011;18374;51.136;3.502;2023-06-19T11:19:29;17.73;;;11.50;;
31798;SDS011;18374;51.136;3.502;2023-06-19T11:21:58;15.77;;;11.85;;
31798;SDS011;18374;51.136;3.502;2023-06-19T11:24:27;15.60;;;10.93;;
31798;SDS011;18374;51.136;3.502;2023-06-19T11:26:57;16.05;;;10.57;;
31798;SDS011;18374;51.136;3.502;2023-06-19T11:29:28;15.10;;;10.73;;
31798;SDS011;18374;51.136;3.502;2023-06-19T11:32:12;15.43;;;9.88;;
31798;SDS011;18374;51.136;3.502;2023-06-19T11:34:41;13.77;;;10.05;;
31798;SDS011;18374;51.136;3.502;2023-06-19T11:37:12;17.42;;;10.90;;
31798;SDS011;18374;51.136;3.502;2023-06-19T11:39:45;14.05;;;9.27;;
31798;SDS011;18374;51.136;3.502;2023-06-19T11:42:16;14.35;;;9.20;;
31798;SDS011;18374;51.136;3.502;2023-06-19T11:44:59;16.50;;;10.90;;
31798;SDS011;18374;51.136;3.502;2023-06-19T11:47:33;14.07;;;9.05;;
31798;SDS011;18374;51.136;3.502;2023-06-19T11:50:03;14.05;;;10.65;;
31798;SDS011;18374;51.136;3.502;2023-06-19T11:52:33;14.93;;;9.73;;
31798;SDS011;18374;51.136;3.502;2023-06-19T11:55:01;12.75;;;7.68;;
31798;SDS011;18374;51.136;3.502;2023-06-19T11:57:29;10.88;;;6.57;;
31798;SDS011;18374;51.136;3.502;2023-06-19T11:59:57;10.65;;;6.75;;
31798;SDS011;18374;51.136;3.502;2023-06-19T12:02:24;14.00;;;6.82;;
31798;SDS011;18374;51.136;3.502;2023-06-19T12:04:52;11.00;;;7.07;;
31798;SDS011;18374;51.136;3.502;2023-06-19T12:07:20;7.93;;;5.90;;
31798;SDS011;18374;51.136;3.502;2023-06-19T12:09:48;9.10;;;6.00;;
31798;SDS011;18374;51.136;3.502;2023-06-19T12:12:16;9.40;;;6.40;;
31798;SDS011;18374;51.136;3.502;2023-06-19T12:14:43;12.48;;;7.45;;
31798;SDS011;18374;51.136;3.502;2023-06-19T12:17:11;10.70;;;6.57;;
31798;SDS011;18374;51.136;3.502;2023-06-19T12:19:39;9.65;;;7.75;;
31798;SDS011;18374;51.136;3.502;2023-06-19T12:22:06;11.45;;;7.63;;
31798;SDS011;18374;51.136;3.502;2023-06-19T12:24:34;15.27;;;7.80;;
31798;SDS011;18374;51.136;3.502;2023-06-19T12:27:02;12.02;;;7.82;;
31798;SDS011;18374;51.136;3.502;2023-06-19T12:29:30;20.63;;;9.13;;
31798;SDS011;18374;51.136;3.502;2023-06-19T12:32:01;12.30;;;7.15;;
31798;SDS011;18374;51.136;3.502;2023-06-19T12:34:30;12.20;;;7.05;;
31798;SDS011;18374;51.136;3.502;2023-06-19T12:36:58;13.88;;;7.20;;
31798;SDS011;18374;51.136;3.502;2023-06-19T12:39:26;10.20;;;7.38;;
31798;SDS011;18374;51.136;3.502;2023-06-19T12:41:54;10.40;;;6.35;;
31798;SDS011;18374;51.136;3.502;2023-06-19T12:44:22;5.22;;;3.80;;
31798;SDS011;18374;51.136;3.502;2023-06-19T12:46:50;5.60;;;3.70;;
31798;SDS011;18374;51.136;3.502;2023-06-19T12:49:19;8.00;;;4.38;;
31798;SDS011;18374;51.136;3.502;2023-06-19T12:51:47;9.48;;;4.88;;
31798;SDS011;18374;51.136;3.502;2023-06-19T12:54:18;9.23;;;6.18;;
31798;SDS011;18374;51.136;3.502;2023-06-19T12:56:46;11.50;;;6.25;;
31798;SDS011;18374;51.136;3.502;2023-06-19T12:59:16;10.10;;;5.78;;
31798;SDS011;18374;51.136;3.502;2023-06-19T13:01:43;9.07;;;5.97;;
31798;SDS011;18374;51.136;3.502;2023-06-19T13:04:12;10.20;;;6.20;;
31798;SDS011;18374;51.136;3.502;2023-06-19T13:06:40;10.43;;;5.28;;
31798;SDS011;18374;51.136;3.502;2023-06-19T13:09:08;9.13;;;5.53;;
31798;SDS011;18374;51.136;3.502;2023-06-19T13:11:36;9.93;;;6.40;;
31798;SDS011;18374;51.136;3.502;2023-06-19T13:14:04;10.00;;;6.10;;
31798;SDS011;18374;51.136;3.502;2023-06-19T13:16:31;10.10;;;5.35;;
31798;SDS011;18374;51.136;3.502;2023-06-19T13:19:13;10.68;;;6.45;;
31798;SDS011;18374;51.136;3.502;2023-06-19T13:21:41;10.07;;;5.47;;
31798;SDS011;18374;51.136;3.502;2023-06-19T13:24:10;8.13;;;5.28;;
31798;SDS011;18374;51.136;3.502;2023-06-19T13:26:38;9.35;;;6.05;;
31798;SDS011;18374;51.136;3.502;2023-06-19T13:29:06;10.63;;;5.80;;
31798;SDS011;18374;51.136;3.502;2023-06-19T13:31:33;8.38;;;4.97;;
31798;SDS011;18374;51.136;3.502;2023-06-19T13:34:01;7.85;;;5.47;;
31798;SDS011;18374;51.136;3.502;2023-06-19T13:36:29;8.95;;;6.35;;
31798;SDS011;18374;51.136;3.502;2023-06-19T13:38:57;12.15;;;5.68;;
31798;SDS011;18374;51.136;3.502;2023-06-19T13:41:25;12.68;;;5.63;;
31798;SDS011;18374;51.136;3.502;2023-06-19T13:43:54;12.07;;;5.90;;
31798;SDS011;18374;51.136;3.502;2023-06-19T13:46:21;9.63;;;5.30;;
31798;SDS011;18374;51.136;3.502;2023-06-19T13:48:49;8.95;;;6.68;;
31798;SDS011;18374;51.136;3.502;2023-06-19T13:51:22;10.20;;;7.13;;
31798;SDS011;18374;51.136;3.502;2023-06-19T13:53:50;8.80;;;5.97;;
31798;SDS011;18374;51.136;3.502;2023-06-19T13:56:19;8.60;;;5.68;;
31798;SDS011;18374;51.136;3.502;2023-06-19T13:58:47;10.35;;;6.15;;
31798;SDS011;18374;51.136;3.502;2023-06-19T14:01:15;9.50;;;5.72;;
31798;SDS011;18374;51.136;3.502;2023-06-19T14:03:43;8.80;;;5.70;;
31798;SDS011;18374;51.136;3.502;2023-06-19T14:06:11;8.80;;;5.13;;
31798;SDS011;18374;51.136;3.502;2023-06-19T14:08:39;8.10;;;5.20;;
31798;SDS011;18374;51.136;3.502;2023-06-19T14:11:07;11.18;;;5.43;;
31798;SDS011;18374;51.136;3.502;2023-06-19T14:13:35;7.97;;;4.88;;
31798;SDS011;18374;51.136;3.502;2023-06-19T14:16:03;8.50;;;5.07;;
31798;SDS011;18374;51.136;3.502;2023-06-19T14:18:30;9.40;;;5.78;;
31798;SDS011;18374;51.136;3.502;2023-06-19T14:20:58;7.75;;;4.57;;
31798;SDS011;18374;51.136;3.502;2023-06-19T14:23:26;8.88;;;5.28;;
31798;SDS011;18374;51.136;3.502;2023-06-19T14:25:54;7.22;;;4.47;;
31798;SDS011;18374;51.136;3.502;2023-06-19T14:28:22;8.18;;;4.85;;
31798;SDS011;18374;51.136;3.502;2023-06-19T14:30:50;7.03;;;5.10;;
31798;SDS011;18374;51.136;3.502;2023-06-19T14:33:18;7.68;;;4.90;;
31798;SDS011;18374;51.136;3.502;2023-06-19T14:35:45;8.25;;;4.93;;
31798;SDS011;18374;51.136;3.502;2023-06-19T14:38:18;5.95;;;4.30;;
31798;SDS011;18374;51.136;3.502;2023-06-19T14:40:45;9.00;;;5.03;;
31798;SDS011;18374;51.136;3.502;2023-06-19T14:43:13;9.63;;;5.57;;
31798;SDS011;18374;51.136;3.502;2023-06-19T14:45:41;7.60;;;5.30;;